sensor_id;sensor_type;location;lat;lon;timestamp;pressure;altitude;pressure_sealevel;temperature;humidity
68873;BME280;55907;50.806;12.882;2022-10-16T00:01:16;971.5;;;15.9;83.0
68873;BME280;55907;50.806;12.882;2022-10-16T00:04:15;971.5;;;16.1;82.2
68873;BME280;55907;50.806;12.882;2022-10-16T00:05:24;unavailable;;;unavailable;unavailable
68873;BME280;55907;50.806;12.882;2022-10-16T00:05:29;971.5;;;16.1;81.9
68873;BME280;55907;50.806;12.882;2022-10-16T00:07:16;971.5;;;16.2;81.8
68873;BME280;55907;50.806;12.882;2022-10-16T00:09:55;unavailable;;;unavailable;unavailable
68873;BME280;55907;50.806;12.882;2022-10-16T00:09:55;971.5;;;16.3;81.2
68873;BME280;55907;50.806;12.882;2022-10-16T00:10:17;971.5;;;16.3;81.2
68873;BME280;55907;50.806;12.882;2022-10-16T00:13:19;971.5;;;16.4;80.5
68873;BME280;55907;50.806;12.882;2022-10-16T00:16:20;971.6;;;16.7;80.2
68873;BME280;55907;50.806;12.882;2022-10-16T00:19:22;971.6;;;16.7;79.7
68873;BME280;55907;50.806;12.882;2022-10-16T00:22:24;971.6;;;16.7;79.5
68873;BME280;55907;50.806;12.882;2022-10-16T00:25:25;971.7;;;16.7;79.5
68873;BME280;55907;50.806;12.882;2022-10-16T00:28:26;971.7;;;16.6;79.9
68873;BME280;55907;50.806;12.882;2022-10-16T00:31:28;971.7;;;16.5;80.1
68873;BME280;55907;50.806;12.882;2022-10-16T00:34:29;971.8;;;16.5;80.2
68873;BME280;55907;50.806;12.882;2022-10-16T00:37:30;971.8;;;16.5;80.6
68873;BME280;55907;50.806;12.882;2022-10-16T00:40:32;971.9;;;16.5;80.7
68873;BME280;55907;50.806;12.882;2022-10-16T00:43:37;971.9;;;16.5;80.9
68873;BME280;55907;50.806;12.882;2022-10-16T00:46:38;971.8;;;16.5;80.9
68873;BME280;55907;50.806;12.882;2022-10-16T00:49:36;971.9;;;16.6;80.8
68873;BME280;55907;50.806;12.882;2022-10-16T00:52:42;971.9;;;16.6;80.8
68873;BME280;55907;50.806;12.882;2022-10-16T00:55:39;972.0;;;16.7;80.4
68873;BME280;55907;50.806;12.882;2022-10-16T00:58:40;971.9;;;16.7;80.4
68873;BME280;55907;50.806;12.882;2022-10-16T01:01:42;972.0;;;16.7;80.3
68873;BME280;55907;50.806;12.882;2022-10-16T01:07:50;972.0;;;16.7;80.4
68873;BME280;55907;50.806;12.882;2022-10-16T01:10:51;972.0;;;16.7;80.5
68873;BME280;55907;50.806;12.882;2022-10-16T01:13:51;972.0;;;16.7;80.8
68873;BME280;55907;50.806;12.882;2022-10-16T01:16:53;972.0;;;16.7;80.7
68873;BME280;55907;50.806;12.882;2022-10-16T01:20:02;972.0;;;16.7;80.8
68873;BME280;55907;50.806;12.882;2022-10-16T01:23:01;972.0;;;16.7;80.8
68873;BME280;55907;50.806;12.882;2022-10-16T01:26:09;971.9;;;16.7;80.8
68873;BME280;55907;50.806;12.882;2022-10-16T01:28:57;972.0;;;16.7;80.9
68873;BME280;55907;50.806;12.882;2022-10-16T01:32:00;972.0;;;16.8;80.9
68873;BME280;55907;50.806;12.882;2022-10-16T01:35:00;972.0;;;16.7;81.0
68873;BME280;55907;50.806;12.882;2022-10-16T01:38:03;972.0;;;16.7;81.0
68873;BME280;55907;50.806;12.882;2022-10-16T01:47:04;971.9;;;16.7;81.3
68873;BME280;55907;50.806;12.882;2022-10-16T01:50:06;972.0;;;16.6;81.5
68873;BME280;55907;50.806;12.882;2022-10-16T01:53:09;971.9;;;16.6;81.7
68873;BME280;55907;50.806;12.882;2022-10-16T01:56:09;971.9;;;16.5;81.9
68873;BME280;55907;50.806;12.882;2022-10-16T01:59:11;971.9;;;16.4;82.1
68873;BME280;55907;50.806;12.882;2022-10-16T02:02:11;971.9;;;16.4;82.0
68873;BME280;55907;50.806;12.882;2022-10-16T02:05:16;972.0;;;16.4;82.1
68873;BME280;55907;50.806;12.882;2022-10-16T02:08:14;972.0;;;16.3;82.4
68873;BME280;55907;50.806;12.882;2022-10-16T02:11:15;972.0;;;16.3;82.3
68873;BME280;55907;50.806;12.882;2022-10-16T02:17:18;972.0;;;16.3;82.4
68873;BME280;55907;50.806;12.882;2022-10-16T02:20:23;972.1;;;16.4;81.8
68873;BME280;55907;50.806;12.882;2022-10-16T02:23:26;972.0;;;16.4;81.8
68873;BME280;55907;50.806;12.882;2022-10-16T02:26:26;972.1;;;16.4;81.8
68873;BME280;55907;50.806;12.882;2022-10-16T02:29:26;972.1;;;16.4;81.7
68873;BME280;55907;50.806;12.882;2022-10-16T02:32:30;972.2;;;16.4;81.4
68873;BME280;55907;50.806;12.882;2022-10-16T02:35:27;972.1;;;16.4;81.3
68873;BME280;55907;50.806;12.882;2022-10-16T02:38:29;972.0;;;16.4;81.2
68873;BME280;55907;50.806;12.882;2022-10-16T02:41:30;972.0;;;16.4;81.3
68873;BME280;55907;50.806;12.882;2022-10-16T02:44:31;972.0;;;16.4;81.1
68873;BME280;55907;50.806;12.882;2022-10-16T02:47:32;972.0;;;16.4;80.9
68873;BME280;55907;50.806;12.882;2022-10-16T02:50:34;972.0;;;16.4;81.0
68873;BME280;55907;50.806;12.882;2022-10-16T02:53:35;972.1;;;16.4;81.1
68873;BME280;55907;50.806;12.882;2022-10-16T02:56:36;972.1;;;16.4;81.0
68873;BME280;55907;50.806;12.882;2022-10-16T02:59:38;972.1;;;16.3;81.1
68873;BME280;55907;50.806;12.882;2022-10-16T03:02:40;972.1;;;16.3;81.2
68873;BME280;55907;50.806;12.882;2022-10-16T03:05:43;972.1;;;16.3;81.3
68873;BME280;55907;50.806;12.882;2022-10-16T03:08:42;972.2;;;16.3;81.6
68873;BME280;55907;50.806;12.882;2022-10-16T03:11:44;972.1;;;16.2;81.8
68873;BME280;55907;50.806;12.882;2022-10-16T03:14:45;972.2;;;16.3;81.8
68873;BME280;55907;50.806;12.882;2022-10-16T03:17:47;972.2;;;16.3;81.9
68873;BME280;55907;50.806;12.882;2022-10-16T03:20:48;972.2;;;16.3;81.9
68873;BME280;55907;50.806;12.882;2022-10-16T03:23:49;972.1;;;16.4;81.7
68873;BME280;55907;50.806;12.882;2022-10-16T03:26:51;972.1;;;16.4;81.7
68873;BME280;55907;50.806;12.882;2022-10-16T03:29:52;972.1;;;16.4;81.5
68873;BME280;55907;50.806;12.882;2022-10-16T03:32:54;972.1;;;16.4;81.6
68873;BME280;55907;50.806;12.882;2022-10-16T03:35:55;972.2;;;16.4;81.5
68873;BME280;55907;50.806;12.882;2022-10-16T03:38:57;972.2;;;16.4;81.4
68873;BME280;55907;50.806;12.882;2022-10-16T03:41:58;972.3;;;16.4;81.5
68873;BME280;55907;50.806;12.882;2022-10-16T03:44:59;972.3;;;16.4;81.7
68873;BME280;55907;50.806;12.882;2022-10-16T03:48:01;972.3;;;16.4;81.6
68873;BME280;55907;50.806;12.882;2022-10-16T03:51:02;972.4;;;16.4;81.5
68873;BME280;55907;50.806;12.882;2022-10-16T03:54:04;972.4;;;16.4;81.5
68873;BME280;55907;50.806;12.882;2022-10-16T03:57:05;972.5;;;16.4;81.4
68873;BME280;55907;50.806;12.882;2022-10-16T04:00:08;972.4;;;16.4;81.3
68873;BME280;55907;50.806;12.882;2022-10-16T04:03:08;972.4;;;16.5;81.0
68873;BME280;55907;50.806;12.882;2022-10-16T04:06:09;972.4;;;16.5;80.8
68873;BME280;55907;50.806;12.882;2022-10-16T04:09:11;972.4;;;16.6;80.4
68873;BME280;55907;50.806;12.882;2022-10-16T04:09:34;unavailable;;;unavailable;unavailable
68873;BME280;55907;50.806;12.882;2022-10-16T04:09:35;972.4;;;16.7;unavailable
68873;BME280;55907;50.806;12.882;2022-10-16T04:12:03;unavailable;;;unavailable;unavailable
68873;BME280;55907;50.806;12.882;2022-10-16T04:12:06;972.4;;;16.7;79.8
68873;BME280;55907;50.806;12.882;2022-10-16T04:12:12;972.4;;;16.7;79.8
68873;BME280;55907;50.806;12.882;2022-10-16T04:15:14;972.5;;;16.8;79.4
68873;BME280;55907;50.806;12.882;2022-10-16T04:18:15;972.4;;;16.9;78.9
68873;BME280;55907;50.806;12.882;2022-10-16T04:19:30;unavailable;;;unavailable;unavailable
68873;BME280;55907;50.806;12.882;2022-10-16T04:19:37;972.5;;;17.0;78.7
68873;BME280;55907;50.806;12.882;2022-10-16T04:20:02;unavailable;;;unavailable;unavailable
68873;BME280;55907;50.806;12.882;2022-10-16T04:21:16;972.5;;;17.0;78.7
68873;BME280;55907;50.806;12.882;2022-10-16T04:24:18;972.5;;;17.0;78.7
68873;BME280;55907;50.806;12.882;2022-10-16T04:27:19;972.5;;;17.2;78.6
68873;BME280;55907;50.806;12.882;2022-10-16T04:30:22;972.5;;;17.1;78.7
68873;BME280;55907;50.806;12.882;2022-10-16T04:33:22;972.5;;;17.0;78.9
68873;BME280;55907;50.806;12.882;2022-10-16T04:36:24;972.5;;;16.9;78.9
68873;BME280;55907;50.806;12.882;2022-10-16T04:39:25;972.5;;;16.9;79.1
68873;BME280;55907;50.806;12.882;2022-10-16T04:42:26;972.5;;;16.8;79.5
68873;BME280;55907;50.806;12.882;2022-10-16T04:45:28;972.6;;;16.7;79.8
68873;BME280;55907;50.806;12.882;2022-10-16T04:48:29;972.6;;;16.6;80.0
68873;BME280;55907;50.806;12.882;2022-10-16T04:51:31;972.7;;;16.5;80.4
68873;BME280;55907;50.806;12.882;2022-10-16T04:54:32;972.7;;;16.4;80.6
68873;BME280;55907;50.806;12.882;2022-10-16T04:57:34;972.7;;;16.4;80.9
68873;BME280;55907;50.806;12.882;2022-10-16T05:00:35;972.7;;;16.3;81.2
68873;BME280;55907;50.806;12.882;2022-10-16T05:03:36;972.7;;;16.3;81.5
68873;BME280;55907;50.806;12.882;2022-10-16T05:06:38;972.7;;;16.2;81.9
68873;BME280;55907;50.806;12.882;2022-10-16T05:09:39;972.7;;;16.2;81.9
68873;BME280;55907;50.806;12.882;2022-10-16T05:12:41;972.8;;;16.2;81.8
68873;BME280;55907;50.806;12.882;2022-10-16T05:15:46;972.7;;;16.1;81.9
68873;BME280;55907;50.806;12.882;2022-10-16T05:18:44;972.8;;;16.1;81.9
68873;BME280;55907;50.806;12.882;2022-10-16T05:21:45;972.9;;;16.0;82.0
68873;BME280;55907;50.806;12.882;2022-10-16T05:24:47;972.9;;;16.0;82.3
68873;BME280;55907;50.806;12.882;2022-10-16T05:27:49;973.0;;;15.9;82.5
68873;BME280;55907;50.806;12.882;2022-10-16T05:33:51;973.1;;;15.9;82.5
68873;BME280;55907;50.806;12.882;2022-10-16T05:39:54;973.2;;;15.9;82.4
68873;BME280;55907;50.806;12.882;2022-10-16T05:42:55;973.2;;;16.0;82.2
68873;BME280;55907;50.806;12.882;2022-10-16T05:45:58;973.2;;;16.0;82.0
68873;BME280;55907;50.806;12.882;2022-10-16T05:48:58;973.2;;;16.1;81.6
68873;BME280;55907;50.806;12.882;2022-10-16T05:52:00;973.2;;;16.1;81.4
68873;BME280;55907;50.806;12.882;2022-10-16T05:55:02;973.2;;;16.2;81.1
68873;BME280;55907;50.806;12.882;2022-10-16T05:58:03;973.3;;;16.3;80.9
68873;BME280;55907;50.806;12.882;2022-10-16T06:01:06;973.3;;;16.3;80.7
68873;BME280;55907;50.806;12.882;2022-10-16T06:04:06;973.2;;;16.4;80.4
68873;BME280;55907;50.806;12.882;2022-10-16T06:13:10;973.3;;;16.5;80.1
68873;BME280;55907;50.806;12.882;2022-10-16T06:16:12;973.4;;;16.5;80.1
68873;BME280;55907;50.806;12.882;2022-10-16T06:22:14;973.5;;;16.5;80.1
68873;BME280;55907;50.806;12.882;2022-10-16T06:25:16;973.6;;;16.5;80.3
68873;BME280;55907;50.806;12.882;2022-10-16T06:28:17;973.6;;;16.5;80.4
68873;BME280;55907;50.806;12.882;2022-10-16T06:31:18;973.6;;;16.5;80.4
68873;BME280;55907;50.806;12.882;2022-10-16T06:34:20;973.6;;;16.7;80.0
68873;BME280;55907;50.806;12.882;2022-10-16T06:37:22;973.7;;;16.7;80.1
68873;BME280;55907;50.806;12.882;2022-10-16T06:40:23;973.7;;;16.6;80.1
68873;BME280;55907;50.806;12.882;2022-10-16T06:43:25;973.8;;;16.6;80.3
68873;BME280;55907;50.806;12.882;2022-10-16T06:46:26;973.8;;;16.6;80.4
68873;BME280;55907;50.806;12.882;2022-10-16T06:49:27;973.8;;;16.6;80.5
68873;BME280;55907;50.806;12.882;2022-10-16T06:52:29;973.8;;;16.6;80.5
68873;BME280;55907;50.806;12.882;2022-10-16T06:55:30;973.9;;;16.7;80.6
68873;BME280;55907;50.806;12.882;2022-10-16T06:58:32;974.0;;;16.8;80.5
68873;BME280;55907;50.806;12.882;2022-10-16T07:01:33;974.0;;;16.9;80.2
68873;BME280;55907;50.806;12.882;2022-10-16T07:04:35;974.0;;;17.0;80.0
68873;BME280;55907;50.806;12.882;2022-10-16T07:07:36;974.1;;;17.0;80.0
68873;BME280;55907;50.806;12.882;2022-10-16T07:10:38;974.1;;;17.1;79.9
68873;BME280;55907;50.806;12.882;2022-10-16T07:13:40;974.1;;;17.2;79.6
68873;BME280;55907;50.806;12.882;2022-10-16T07:16:40;974.1;;;17.4;79.3
68873;BME280;55907;50.806;12.882;2022-10-16T07:19:42;974.2;;;17.4;79.0
68873;BME280;55907;50.806;12.882;2022-10-16T07:22:43;974.3;;;17.5;79.0
68873;BME280;55907;50.806;12.882;2022-10-16T07:25:44;974.3;;;17.6;78.8
68873;BME280;55907;50.806;12.882;2022-10-16T07:28:46;974.3;;;17.7;78.5
68873;BME280;55907;50.806;12.882;2022-10-16T07:31:48;974.3;;;17.7;78.6
68873;BME280;55907;50.806;12.882;2022-10-16T07:34:49;974.3;;;17.8;78.2
68873;BME280;55907;50.806;12.882;2022-10-16T07:37:50;974.3;;;17.8;78.2
68873;BME280;55907;50.806;12.882;2022-10-16T07:40:57;974.3;;;17.8;78.5
68873;BME280;55907;50.806;12.882;2022-10-16T07:43:54;974.3;;;17.9;78.5
68873;BME280;55907;50.806;12.882;2022-10-16T07:46:54;974.2;;;17.9;78.4
68873;BME280;55907;50.806;12.882;2022-10-16T07:49:56;974.4;;;18.0;78.1
68873;BME280;55907;50.806;12.882;2022-10-16T07:52:57;974.4;;;18.0;78.2
68873;BME280;55907;50.806;12.882;2022-10-16T07:56:00;974.3;;;18.1;77.7
68873;BME280;55907;50.806;12.882;2022-10-16T07:59:00;974.3;;;18.2;77.3
68873;BME280;55907;50.806;12.882;2022-10-16T08:02:02;974.3;;;18.3;77.1
68873;BME280;55907;50.806;12.882;2022-10-16T08:05:03;974.4;;;18.5;76.4
68873;BME280;55907;50.806;12.882;2022-10-16T08:08:05;974.5;;;18.6;75.6
68873;BME280;55907;50.806;12.882;2022-10-16T08:11:06;974.5;;;18.8;74.7
68873;BME280;55907;50.806;12.882;2022-10-16T08:14:07;974.6;;;19.0;74.2
68873;BME280;55907;50.806;12.882;2022-10-16T08:17:09;974.5;;;19.1;73.5
68873;BME280;55907;50.806;12.882;2022-10-16T08:20:11;974.5;;;19.3;72.9
68873;BME280;55907;50.806;12.882;2022-10-16T08:23:12;974.5;;;19.5;72.5
68873;BME280;55907;50.806;12.882;2022-10-16T08:26:13;974.6;;;19.9;71.2
68873;BME280;55907;50.806;12.882;2022-10-16T08:29:14;974.6;;;20.2;69.5
68873;BME280;55907;50.806;12.882;2022-10-16T08:32:16;974.6;;;20.4;68.6
68873;BME280;55907;50.806;12.882;2022-10-16T08:35:17;974.6;;;20.6;67.5
68873;BME280;55907;50.806;12.882;2022-10-16T08:38:23;974.5;;;20.8;68.2
68873;BME280;55907;50.806;12.882;2022-10-16T08:39:39;unavailable;;;unavailable;unavailable
68873;BME280;55907;50.806;12.882;2022-10-16T08:39:57;974.5;;;20.7;unavailable
68873;BME280;55907;50.806;12.882;2022-10-16T08:41:28;974.6;;;20.7;67.6
68873;BME280;55907;50.806;12.882;2022-10-16T08:47:26;974.6;;;20.7;67.4
68873;BME280;55907;50.806;12.882;2022-10-16T08:50:26;974.7;;;20.6;67.8
68873;BME280;55907;50.806;12.882;2022-10-16T08:53:29;974.7;;;20.4;67.6
68873;BME280;55907;50.806;12.882;2022-10-16T08:56:27;974.7;;;20.5;67.9
68873;BME280;55907;50.806;12.882;2022-10-16T08:59:28;974.7;;;20.4;68.0
68873;BME280;55907;50.806;12.882;2022-10-16T09:05:45;974.7;;;20.3;68.2
68873;BME280;55907;50.806;12.882;2022-10-16T09:08:41;974.7;;;20.4;68.0
68873;BME280;55907;50.806;12.882;2022-10-16T09:11:44;974.9;;;20.4;67.4
68873;BME280;55907;50.806;12.882;2022-10-16T09:14:45;974.9;;;20.5;67.4
68873;BME280;55907;50.806;12.882;2022-10-16T09:17:44;974.9;;;20.5;67.4
68873;BME280;55907;50.806;12.882;2022-10-16T09:20:45;975.0;;;20.6;66.9
68873;BME280;55907;50.806;12.882;2022-10-16T09:23:39;975.1;;;20.6;66.9
68873;BME280;55907;50.806;12.882;2022-10-16T09:26:41;975.0;;;20.5;67.0
68873;BME280;55907;50.806;12.882;2022-10-16T09:29:42;975.0;;;20.5;67.1
68873;BME280;55907;50.806;12.882;2022-10-16T09:32:46;975.1;;;20.4;67.4
68873;BME280;55907;50.806;12.882;2022-10-16T09:35:47;975.1;;;20.3;67.4
68873;BME280;55907;50.806;12.882;2022-10-16T09:38:46;975.2;;;20.3;67.6
68873;BME280;55907;50.806;12.882;2022-10-16T09:41:48;975.1;;;20.4;66.9
68873;BME280;55907;50.806;12.882;2022-10-16T09:44:50;975.2;;;20.5;66.6
68873;BME280;55907;50.806;12.882;2022-10-16T09:47:51;975.2;;;20.5;66.5
68873;BME280;55907;50.806;12.882;2022-10-16T09:50:56;975.3;;;20.7;66.4
68873;BME280;55907;50.806;12.882;2022-10-16T09:53:56;975.3;;;20.7;65.9
68873;BME280;55907;50.806;12.882;2022-10-16T09:57:04;975.3;;;20.5;66.2
68873;BME280;55907;50.806;12.882;2022-10-16T09:59:57;975.4;;;20.6;66.3
68873;BME280;55907;50.806;12.882;2022-10-16T10:02:58;975.5;;;20.5;66.7
68873;BME280;55907;50.806;12.882;2022-10-16T10:09:05;975.5;;;20.5;66.7
68873;BME280;55907;50.806;12.882;2022-10-16T10:12:03;975.6;;;21.1;64.6
68873;BME280;55907;50.806;12.882;2022-10-16T10:15:06;975.6;;;21.5;63.3
68873;BME280;55907;50.806;12.882;2022-10-16T10:21:13;975.7;;;22.0;61.6
68873;BME280;55907;50.806;12.882;2022-10-16T10:24:09;975.7;;;22.1;61.0
68873;BME280;55907;50.806;12.882;2022-10-16T10:27:13;975.8;;;21.9;61.5
68873;BME280;55907;50.806;12.882;2022-10-16T10:33:19;975.6;;;21.9;62.3
68873;BME280;55907;50.806;12.882;2022-10-16T10:36:22;975.7;;;22.0;61.7
68873;BME280;55907;50.806;12.882;2022-10-16T10:39:18;975.6;;;22.0;61.5
68873;BME280;55907;50.806;12.882;2022-10-16T10:42:22;975.7;;;22.0;61.7
68873;BME280;55907;50.806;12.882;2022-10-16T10:45:24;975.7;;;21.9;61.7
68873;BME280;55907;50.806;12.882;2022-10-16T10:48:27;975.6;;;21.8;61.8
68873;BME280;55907;50.806;12.882;2022-10-16T10:51:24;975.6;;;21.8;62.0
68873;BME280;55907;50.806;12.882;2022-10-16T10:54:25;975.6;;;21.9;61.8
68873;BME280;55907;50.806;12.882;2022-10-16T10:57:28;975.6;;;21.9;62.0
68873;BME280;55907;50.806;12.882;2022-10-16T11:00:28;975.6;;;21.8;62.1
68873;BME280;55907;50.806;12.882;2022-10-16T11:03:35;975.6;;;21.8;62.2
68873;BME280;55907;50.806;12.882;2022-10-16T11:06:30;975.6;;;22.1;62.0
68873;BME280;55907;50.806;12.882;2022-10-16T11:09:32;975.6;;;22.2;61.4
68873;BME280;55907;50.806;12.882;2022-10-16T11:12:33;975.7;;;22.4;60.7
68873;BME280;55907;50.806;12.882;2022-10-16T11:15:34;975.7;;;22.8;60.1
68873;BME280;55907;50.806;12.882;2022-10-16T11:18:38;975.7;;;23.3;57.8
68873;BME280;55907;50.806;12.882;2022-10-16T11:21:39;975.7;;;23.4;57.5
68873;BME280;55907;50.806;12.882;2022-10-16T11:24:40;975.6;;;23.4;58.1
68873;BME280;55907;50.806;12.882;2022-10-16T11:27:39;975.7;;;23.3;57.9
68873;BME280;55907;50.806;12.882;2022-10-16T11:30:41;975.7;;;23.1;58.3
68873;BME280;55907;50.806;12.882;2022-10-16T11:33:41;975.8;;;23.2;58.4
68873;BME280;55907;50.806;12.882;2022-10-16T11:36:46;975.7;;;23.4;57.6
68873;BME280;55907;50.806;12.882;2022-10-16T11:39:43;975.8;;;23.8;57.1
68873;BME280;55907;50.806;12.882;2022-10-16T11:42:48;975.7;;;23.6;56.1
68873;BME280;55907;50.806;12.882;2022-10-16T11:45:46;975.8;;;23.4;56.8
68873;BME280;55907;50.806;12.882;2022-10-16T11:48:50;975.8;;;23.3;56.9
68873;BME280;55907;50.806;12.882;2022-10-16T11:51:54;975.9;;;23.3;57.6
68873;BME280;55907;50.806;12.882;2022-10-16T11:54:52;975.8;;;23.2;57.0
68873;BME280;55907;50.806;12.882;2022-10-16T11:57:53;975.9;;;23.5;57.0
68873;BME280;55907;50.806;12.882;2022-10-16T12:00:57;975.9;;;23.5;56.5
68873;BME280;55907;50.806;12.882;2022-10-16T12:04:02;975.8;;;23.5;55.7
68873;BME280;55907;50.806;12.882;2022-10-16T12:06:58;975.9;;;23.2;56.5
68873;BME280;55907;50.806;12.882;2022-10-16T12:09:55;975.9;;;23.5;56.4
68873;BME280;55907;50.806;12.882;2022-10-16T12:12:57;975.9;;;23.9;54.7
68873;BME280;55907;50.806;12.882;2022-10-16T12:16:19;975.9;;;23.9;54.0
68873;BME280;55907;50.806;12.882;2022-10-16T12:19:11;975.9;;;24.2;53.3
68873;BME280;55907;50.806;12.882;2022-10-16T12:22:01;975.9;;;24.3;53.1
68873;BME280;55907;50.806;12.882;2022-10-16T12:25:20;unavailable;;;unavailable;unavailable
68873;BME280;55907;50.806;12.882;2022-10-16T12:25:57;975.9;;;24.5;52.5
68873;BME280;55907;50.806;12.882;2022-10-16T12:27:29;976.0;;;24.6;51.9
68873;BME280;55907;50.806;12.882;2022-10-16T12:28:05;976.0;;;24.6;51.9
68873;BME280;55907;50.806;12.882;2022-10-16T12:31:52;unavailable;;;unavailable;unavailable
68873;BME280;55907;50.806;12.882;2022-10-16T12:32:32;976.0;;;24.6;52.1
68873;BME280;55907;50.806;12.882;2022-10-16T12:34:20;976.0;;;24.6;52.0
68873;BME280;55907;50.806;12.882;2022-10-16T12:36:34;unavailable;;;unavailable;unavailable
68873;BME280;55907;50.806;12.882;2022-10-16T12:40:26;976.1;;;24.7;51.6
68873;BME280;55907;50.806;12.882;2022-10-16T12:43:12;976.0;;;24.4;52.2
68873;BME280;55907;50.806;12.882;2022-10-16T12:46:23;976.1;;;24.2;52.9
68873;BME280;55907;50.806;12.882;2022-10-16T12:49:28;976.1;;;24.3;52.6
68873;BME280;55907;50.806;12.882;2022-10-16T12:55:17;976.2;;;24.5;53.1
68873;BME280;55907;50.806;12.882;2022-10-16T12:57:45;unavailable;;;unavailable;unavailable
68873;BME280;55907;50.806;12.882;2022-10-16T12:58:20;976.2;;;24.6;52.2
68873;BME280;55907;50.806;12.882;2022-10-16T13:00:44;unavailable;;;unavailable;unavailable
68873;BME280;55907;50.806;12.882;2022-10-16T13:01:04;976.2;;;24.5;52.2
68873;BME280;55907;50.806;12.882;2022-10-16T13:01:25;976.2;;;24.6;52.6
68873;BME280;55907;50.806;12.882;2022-10-16T13:02:50;unavailable;;;unavailable;unavailable
68873;BME280;55907;50.806;12.882;2022-10-16T13:04:04;976.2;;;24.3;52.5
68873;BME280;55907;50.806;12.882;2022-10-16T13:04:27;976.1;;;24.3;52.2
68873;BME280;55907;50.806;12.882;2022-10-16T13:07:32;976.2;;;24.3;52.4
68873;BME280;55907;50.806;12.882;2022-10-16T13:10:26;976.2;;;24.1;52.4
68873;BME280;55907;50.806;12.882;2022-10-16T13:12:54;unavailable;;;unavailable;unavailable
68873;BME280;55907;50.806;12.882;2022-10-16T13:13:18;976.1;;;23.9;52.9
68873;BME280;55907;50.806;12.882;2022-10-16T13:13:33;976.1;;;23.9;52.9
68873;BME280;55907;50.806;12.882;2022-10-16T13:16:30;976.2;;;23.8;53.5
68873;BME280;55907;50.806;12.882;2022-10-16T13:19:34;976.2;;;23.6;54.3
68873;BME280;55907;50.806;12.882;2022-10-16T13:22:32;976.2;;;23.6;55.0
68873;BME280;55907;50.806;12.882;2022-10-16T13:25:38;976.2;;;23.5;55.5
68873;BME280;55907;50.806;12.882;2022-10-16T13:28:33;976.3;;;23.3;55.8
68873;BME280;55907;50.806;12.882;2022-10-16T13:31:32;976.3;;;23.0;56.5
68873;BME280;55907;50.806;12.882;2022-10-16T13:34:43;976.3;;;22.9;57.1
68873;BME280;55907;50.806;12.882;2022-10-16T13:37:35;976.4;;;22.7;57.6
68873;BME280;55907;50.806;12.882;2022-10-16T13:40:48;976.4;;;22.6;57.9
68873;BME280;55907;50.806;12.882;2022-10-16T13:43:40;976.4;;;22.6;58.4
68873;BME280;55907;50.806;12.882;2022-10-16T13:46:39;976.4;;;22.4;58.5
68873;BME280;55907;50.806;12.882;2022-10-16T13:49:40;976.4;;;22.4;58.9
68873;BME280;55907;50.806;12.882;2022-10-16T13:52:42;976.4;;;22.3;59.3
68873;BME280;55907;50.806;12.882;2022-10-16T13:55:43;976.5;;;22.3;59.6
68873;BME280;55907;50.806;12.882;2022-10-16T13:58:45;976.4;;;22.1;60.4
68873;BME280;55907;50.806;12.882;2022-10-16T14:01:46;976.3;;;22.0;60.5
68873;BME280;55907;50.806;12.882;2022-10-16T14:04:48;976.4;;;21.9;60.8
68873;BME280;55907;50.806;12.882;2022-10-16T14:07:50;976.4;;;21.8;61.2
68873;BME280;55907;50.806;12.882;2022-10-16T14:10:52;976.4;;;21.9;61.0
68873;BME280;55907;50.806;12.882;2022-10-16T14:13:52;976.4;;;22.0;61.0
68873;BME280;55907;50.806;12.882;2022-10-16T14:16:53;976.5;;;22.0;60.0
68873;BME280;55907;50.806;12.882;2022-10-16T14:19:56;976.4;;;22.2;59.4
68873;BME280;55907;50.806;12.882;2022-10-16T14:23:01;976.4;;;22.1;59.6
68873;BME280;55907;50.806;12.882;2022-10-16T14:26:06;976.5;;;22.0;59.9
68873;BME280;55907;50.806;12.882;2022-10-16T14:29:11;976.6;;;22.0;59.9
68873;BME280;55907;50.806;12.882;2022-10-16T14:32:01;976.6;;;21.9;59.6
68873;BME280;55907;50.806;12.882;2022-10-16T14:35:01;976.6;;;22.0;59.8
68873;BME280;55907;50.806;12.882;2022-10-16T14:38:04;976.6;;;22.1;59.4
68873;BME280;55907;50.806;12.882;2022-10-16T14:44:06;976.7;;;22.0;60.1
68873;BME280;55907;50.806;12.882;2022-10-16T14:47:09;976.7;;;21.9;60.7
68873;BME280;55907;50.806;12.882;2022-10-16T14:50:08;976.7;;;21.9;61.0
68873;BME280;55907;50.806;12.882;2022-10-16T14:53:11;976.8;;;21.8;61.0
68873;BME280;55907;50.806;12.882;2022-10-16T14:56:16;976.8;;;21.6;61.1
68873;BME280;55907;50.806;12.882;2022-10-16T14:59:15;976.8;;;21.5;61.1
68873;BME280;55907;50.806;12.882;2022-10-16T15:02:20;976.8;;;21.4;61.5
68873;BME280;55907;50.806;12.882;2022-10-16T15:05:18;976.9;;;21.4;61.9
68873;BME280;55907;50.806;12.882;2022-10-16T15:08:17;976.8;;;21.4;62.4
68873;BME280;55907;50.806;12.882;2022-10-16T15:11:19;976.9;;;21.4;62.6
68873;BME280;55907;50.806;12.882;2022-10-16T15:14:19;977.0;;;21.2;63.0
68873;BME280;55907;50.806;12.882;2022-10-16T15:17:21;977.0;;;21.2;63.4
68873;BME280;55907;50.806;12.882;2022-10-16T15:20:23;976.9;;;21.1;63.8
68873;BME280;55907;50.806;12.882;2022-10-16T15:23:24;977.0;;;21.0;64.2
68873;BME280;55907;50.806;12.882;2022-10-16T15:26:27;977.0;;;20.9;64.7
68873;BME280;55907;50.806;12.882;2022-10-16T15:29:26;976.9;;;20.8;65.5
68873;BME280;55907;50.806;12.882;2022-10-16T15:32:28;976.9;;;20.7;65.8
68873;BME280;55907;50.806;12.882;2022-10-16T15:35:29;976.9;;;20.6;66.1
68873;BME280;55907;50.806;12.882;2022-10-16T15:38:31;977.0;;;20.6;66.5
68873;BME280;55907;50.806;12.882;2022-10-16T15:41:32;977.1;;;20.5;66.9
68873;BME280;55907;50.806;12.882;2022-10-16T15:44:33;977.1;;;20.4;67.5
68873;BME280;55907;50.806;12.882;2022-10-16T15:47:35;977.1;;;20.3;67.7
68873;BME280;55907;50.806;12.882;2022-10-16T15:50:37;977.1;;;20.2;68.1
68873;BME280;55907;50.806;12.882;2022-10-16T15:53:38;977.2;;;20.1;68.5
68873;BME280;55907;50.806;12.882;2022-10-16T15:56:42;977.2;;;20.0;68.9
68873;BME280;55907;50.806;12.882;2022-10-16T15:59:40;977.2;;;19.9;69.3
68873;BME280;55907;50.806;12.882;2022-10-16T16:02:43;977.1;;;19.8;70.1
68873;BME280;55907;50.806;12.882;2022-10-16T16:08:45;977.2;;;19.6;71.1
68873;BME280;55907;50.806;12.882;2022-10-16T16:11:46;977.2;;;19.5;71.3
68873;BME280;55907;50.806;12.882;2022-10-16T16:14:48;977.3;;;19.4;72.3
68873;BME280;55907;50.806;12.882;2022-10-16T16:17:49;977.4;;;19.3;73.2
68873;BME280;55907;50.806;12.882;2022-10-16T16:20:50;977.4;;;19.2;73.5
68873;BME280;55907;50.806;12.882;2022-10-16T16:23:52;977.4;;;19.1;73.4